sensor_id;sensor_type;location;lat;lon;timestamp;P1;durP1;ratioP1;P2;durP2;ratioP2
59054;SDS011;44845;51.444;7.460;2023-05-23T00:00:17;11.27;;;8.57;;
59054;SDS011;44845;51.444;7.460;2023-05-23T00:02:43;9.98;;;7.85;;
59054;SDS011;44845;51.444;7.460;2023-05-23T00:05:08;8.73;;;7.38;;
59054;SDS011;44845;51.444;7.460;2023-05-23T00:07:34;10.23;;;8.05;;
59054;SDS011;44845;51.444;7.460;2023-05-23T00:09:59;9.60;;;7.70;;
59054;SDS011;44845;51.444;7.460;2023-05-23T00:12:24;10.27;;;8.20;;
59054;SDS011;44845;51.444;7.460;2023-05-23T00:14:51;13.05;;;8.18;;
59054;SDS011;44845;51.444;7.460;2023-05-23T00:17:17;11.40;;;8.35;;
59054;SDS011;44845;51.444;7.460;2023-05-23T00:19:43;11.23;;;9.15;;
59054;SDS011;44845;51.444;7.460;2023-05-23T00:22:10;10.85;;;8.45;;
59054;SDS011;44845;51.444;7.460;2023-05-23T00:24:36;9.88;;;8.25;;
59054;SDS011;44845;51.444;7.460;2023-05-23T00:27:01;9.20;;;7.70;;
59054;SDS011;44845;51.444;7.460;2023-05-23T00:29:27;10.98;;;7.65;;
59054;SDS011;44845;51.444;7.460;2023-05-23T00:31:52;11.77;;;7.97;;
59054;SDS011;44845;51.444;7.460;2023-05-23T00:34:18;11.13;;;7.72;;
59054;SDS011;44845;51.444;7.460;2023-05-23T00:36:43;10.00;;;7.90;;
59054;SDS011;44845;51.444;7.460;2023-05-23T00:39:11;8.70;;;7.25;;
59054;SDS011;44845;51.444;7.460;2023-05-23T00:41:43;8.95;;;8.02;;
59054;SDS011;44845;51.444;7.460;2023-05-23T00:44:08;7.72;;;6.93;;
59054;SDS011;44845;51.444;7.460;2023-05-23T00:46:35;7.53;;;6.70;;
59054;SDS011;44845;51.444;7.460;2023-05-23T00:49:00;10.50;;;7.13;;
59054;SDS011;44845;51.444;7.460;2023-05-23T00:51:26;8.95;;;6.60;;
59054;SDS011;44845;51.444;7.460;2023-05-23T00:53:52;7.30;;;6.22;;
59054;SDS011;44845;51.444;7.460;2023-05-23T00:56:18;7.65;;;5.20;;
59054;SDS011;44845;51.444;7.460;2023-05-23T00:58:44;5.85;;;5.05;;
59054;SDS011;44845;51.444;7.460;2023-05-23T01:01:10;5.15;;;4.60;;
59054;SDS011;44845;51.444;7.460;2023-05-23T01:03:35;5.85;;;4.13;;
59054;SDS011;44845;51.444;7.460;2023-05-23T01:06:01;5.22;;;3.70;;
59054;SDS011;44845;51.444;7.460;2023-05-23T01:08:27;4.72;;;3.78;;
59054;SDS011;44845;51.444;7.460;2023-05-23T01:10:53;5.72;;;4.00;;
59054;SDS011;44845;51.444;7.460;2023-05-23T01:13:28;4.10;;;3.70;;
59054;SDS011;44845;51.444;7.460;2023-05-23T01:16:05;3.50;;;3.20;;
59054;SDS011;44845;51.444;7.460;2023-05-23T01:18:36;5.57;;;4.10;;
59054;SDS011;44845;51.444;7.460;2023-05-23T01:21:06;7.28;;;3.80;;
59054;SDS011;44845;51.444;7.460;2023-05-23T01:29:07;3.50;;;3.20;;
59054;SDS011;44845;51.444;7.460;2023-05-23T01:31:36;4.82;;;3.75;;
59054;SDS011;44845;51.444;7.460;2023-05-23T01:34:07;7.03;;;3.38;;
59054;SDS011;44845;51.444;7.460;2023-05-23T01:36:34;5.60;;;3.53;;
59054;SDS011;44845;51.444;7.460;2023-05-23T01:39:06;4.47;;;3.38;;
59054;SDS011;44845;51.444;7.460;2023-05-23T01:41:32;8.10;;;4.03;;
59054;SDS011;44845;51.444;7.460;2023-05-23T01:43:57;3.97;;;3.58;;
59054;SDS011;44845;51.444;7.460;2023-05-23T01:46:22;4.57;;;4.05;;
59054;SDS011;44845;51.444;7.460;2023-05-23T01:48:49;7.13;;;3.40;;
59054;SDS011;44845;51.444;7.460;2023-05-23T01:51:15;3.67;;;3.38;;
59054;SDS011;44845;51.444;7.460;2023-05-23T01:53:40;3.80;;;3.28;;
59054;SDS011;44845;51.444;7.460;2023-05-23T01:56:07;5.07;;;3.47;;
59054;SDS011;44845;51.444;7.460;2023-05-23T01:58:32;4.70;;;3.72;;
59054;SDS011;44845;51.444;7.460;2023-05-23T02:00:58;5.63;;;4.20;;
59054;SDS011;44845;51.444;7.460;2023-05-23T02:03:24;4.70;;;4.20;;
59054;SDS011;44845;51.444;7.460;2023-05-23T02:05:49;4.90;;;4.25;;
59054;SDS011;44845;51.444;7.460;2023-05-23T02:08:15;6.78;;;4.20;;
59054;SDS011;44845;51.444;7.460;2023-05-23T02:10:41;7.10;;;4.20;;
59054;SDS011;44845;51.444;7.460;2023-05-23T02:13:06;8.02;;;4.40;;
59054;SDS011;44845;51.444;7.460;2023-05-23T02:15:31;4.85;;;4.35;;
59054;SDS011;44845;51.444;7.460;2023-05-23T02:17:57;6.57;;;4.00;;
59054;SDS011;44845;51.444;7.460;2023-05-23T02:20:22;6.30;;;4.32;;
59054;SDS011;44845;51.444;7.460;2023-05-23T02:22:47;6.45;;;4.30;;
59054;SDS011;44845;51.444;7.460;2023-05-23T02:25:13;5.55;;;4.47;;
59054;SDS011;44845;51.444;7.460;2023-05-23T02:27:39;5.18;;;4.68;;
59054;SDS011;44845;51.444;7.460;2023-05-23T02:30:05;8.00;;;4.97;;
59054;SDS011;44845;51.444;7.460;2023-05-23T02:32:31;5.47;;;4.22;;
59054;SDS011;44845;51.444;7.460;2023-05-23T02:34:56;5.20;;;4.60;;
59054;SDS011;44845;51.444;7.460;2023-05-23T02:37:22;9.25;;;4.95;;
59054;SDS011;44845;51.444;7.460;2023-05-23T02:39:47;5.60;;;4.72;;
59054;SDS011;44845;51.444;7.460;2023-05-23T02:42:12;5.88;;;4.45;;
59054;SDS011;44845;51.444;7.460;2023-05-23T02:44:38;6.50;;;4.25;;
59054;SDS011;44845;51.444;7.460;2023-05-23T02:47:03;6.00;;;5.13;;
59054;SDS011;44845;51.444;7.460;2023-05-23T02:49:28;8.52;;;5.32;;
59054;SDS011;44845;51.444;7.460;2023-05-23T02:51:54;6.38;;;5.30;;
59054;SDS011;44845;51.444;7.460;2023-05-23T02:54:19;8.02;;;5.43;;
59054;SDS011;44845;51.444;7.460;2023-05-23T02:56:45;10.90;;;6.05;;
59054;SDS011;44845;51.444;7.460;2023-05-23T02:59:11;7.93;;;5.80;;
59054;SDS011;44845;51.444;7.460;2023-05-23T03:01:36;7.72;;;6.40;;
59054;SDS011;44845;51.444;7.460;2023-05-23T03:04:02;8.57;;;6.30;;
59054;SDS011;44845;51.444;7.460;2023-05-23T03:06:28;9.57;;;6.20;;
59054;SDS011;44845;51.444;7.460;2023-05-23T03:08:56;8.23;;;6.28;;
59054;SDS011;44845;51.444;7.460;2023-05-23T03:11:21;9.48;;;6.13;;
59054;SDS011;44845;51.444;7.460;2023-05-23T03:13:47;8.68;;;6.13;;
59054;SDS011;44845;51.444;7.460;2023-05-23T03:16:12;10.52;;;6.60;;
59054;SDS011;44845;51.444;7.460;2023-05-23T03:18:37;10.38;;;6.28;;
59054;SDS011;44845;51.444;7.460;2023-05-23T03:21:05;9.95;;;6.65;;
59054;SDS011;44845;51.444;7.460;2023-05-23T03:23:31;9.48;;;6.80;;
59054;SDS011;44845;51.444;7.460;2023-05-23T03:25:56;7.45;;;6.38;;
59054;SDS011;44845;51.444;7.460;2023-05-23T03:28:23;10.52;;;7.28;;
59054;SDS011;44845;51.444;7.460;2023-05-23T03:30:49;9.27;;;6.75;;
59054;SDS011;44845;51.444;7.460;2023-05-23T03:33:14;11.50;;;7.32;;
59054;SDS011;44845;51.444;7.460;2023-05-23T03:35:40;14.40;;;8.10;;
59054;SDS011;44845;51.444;7.460;2023-05-23T03:38:05;12.77;;;8.60;;
59054;SDS011;44845;51.444;7.460;2023-05-23T03:40:31;16.80;;;9.40;;
59054;SDS011;44845;51.444;7.460;2023-05-23T03:43:05;15.05;;;8.13;;
59054;SDS011;44845;51.444;7.460;2023-05-23T03:45:32;13.60;;;7.50;;
59054;SDS011;44845;51.444;7.460;2023-05-23T03:47:58;14.68;;;8.20;;
59054;SDS011;44845;51.444;7.460;2023-05-23T03:50:24;10.98;;;7.85;;
59054;SDS011;44845;51.444;7.460;2023-05-23T03:52:50;11.73;;;7.82;;
59054;SDS011;44845;51.444;7.460;2023-05-23T03:55:16;15.45;;;8.15;;
59054;SDS011;44845;51.444;7.460;2023-05-23T03:57:45;14.52;;;8.00;;
59054;SDS011;44845;51.444;7.460;2023-05-23T04:00:11;13.65;;;7.97;;
59054;SDS011;44845;51.444;7.460;2023-05-23T04:02:37;12.80;;;8.13;;
59054;SDS011;44845;51.444;7.460;2023-05-23T04:05:04;13.73;;;8.80;;
59054;SDS011;44845;51.444;7.460;2023-05-23T04:07:30;15.10;;;9.65;;
59054;SDS011;44845;51.444;7.460;2023-05-23T04:09:58;17.27;;;9.75;;
59054;SDS011;44845;51.444;7.460;2023-05-23T04:12:24;13.10;;;9.38;;
59054;SDS011;44845;51.444;7.460;2023-05-23T04:14:50;15.60;;;9.93;;
59054;SDS011;44845;51.444;7.460;2023-05-23T04:17:15;14.82;;;9.05;;
59054;SDS011;44845;51.444;7.460;2023-05-23T04:19:40;14.93;;;9.57;;
59054;SDS011;44845;51.444;7.460;2023-05-23T04:22:06;13.70;;;9.35;;
59054;SDS011;44845;51.444;7.460;2023-05-23T04:24:31;14.95;;;9.00;;
59054;SDS011;44845;51.444;7.460;2023-05-23T04:26:57;16.17;;;9.75;;
59054;SDS011;44845;51.444;7.460;2023-05-23T04:29:23;14.38;;;10.85;;
59054;SDS011;44845;51.444;7.460;2023-05-23T04:31:50;14.90;;;10.75;;
59054;SDS011;44845;51.444;7.460;2023-05-23T04:34:15;12.68;;;10.70;;
59054;SDS011;44845;51.444;7.460;2023-05-23T04:36:41;16.67;;;10.70;;
59054;SDS011;44845;51.444;7.460;2023-05-23T04:39:08;13.98;;;10.40;;
59054;SDS011;44845;51.444;7.460;2023-05-23T04:41:34;16.88;;;10.05;;
59054;SDS011;44845;51.444;7.460;2023-05-23T04:44:00;13.85;;;9.57;;
59054;SDS011;44845;51.444;7.460;2023-05-23T04:46:26;11.10;;;8.80;;
59054;SDS011;44845;51.444;7.460;2023-05-23T04:48:51;9.90;;;8.68;;
59054;SDS011;44845;51.444;7.460;2023-05-23T04:51:18;16.17;;;8.88;;
59054;SDS011;44845;51.444;7.460;2023-05-23T04:53:45;11.50;;;8.55;;
59054;SDS011;44845;51.444;7.460;2023-05-23T04:56:11;10.07;;;8.05;;
59054;SDS011;44845;51.444;7.460;2023-05-23T04:58:36;13.77;;;8.32;;
59054;SDS011;44845;51.444;7.460;2023-05-23T05:01:01;11.85;;;8.43;;
59054;SDS011;44845;51.444;7.460;2023-05-23T05:03:27;11.50;;;8.63;;
59054;SDS011;44845;51.444;7.460;2023-05-23T05:05:52;14.00;;;8.18;;
59054;SDS011;44845;51.444;7.460;2023-05-23T05:08:18;10.45;;;8.00;;
59054;SDS011;44845;51.444;7.460;2023-05-23T05:10:44;11.63;;;8.02;;
59054;SDS011;44845;51.444;7.460;2023-05-23T05:13:09;14.35;;;7.75;;
59054;SDS011;44845;51.444;7.460;2023-05-23T05:15:35;12.38;;;7.57;;
59054;SDS011;44845;51.444;7.460;2023-05-23T05:18:00;9.77;;;7.03;;
59054;SDS011;44845;51.444;7.460;2023-05-23T05:20:25;12.02;;;7.40;;
59054;SDS011;44845;51.444;7.460;2023-05-23T05:22:55;11.65;;;7.53;;
59054;SDS011;44845;51.444;7.460;2023-05-23T05:25:24;10.98;;;7.35;;
59054;SDS011;44845;51.444;7.460;2023-05-23T05:27:51;12.55;;;8.52;;
59054;SDS011;44845;51.444;7.460;2023-05-23T05:30:16;12.98;;;8.73;;
59054;SDS011;44845;51.444;7.460;2023-05-23T05:32:42;12.77;;;8.80;;
59054;SDS011;44845;51.444;7.460;2023-05-23T05:35:10;14.02;;;8.73;;
59054;SDS011;44845;51.444;7.460;2023-05-23T05:37:37;12.52;;;8.63;;
59054;SDS011;44845;51.444;7.460;2023-05-23T05:40:03;13.23;;;8.68;;
59054;SDS011;44845;51.444;7.460;2023-05-23T05:42:31;14.57;;;8.65;;
59054;SDS011;44845;51.444;7.460;2023-05-23T05:44:56;13.55;;;9.40;;
59054;SDS011;44845;51.444;7.460;2023-05-23T05:47:22;21.35;;;10.00;;
59054;SDS011;44845;51.444;7.460;2023-05-23T05:49:47;18.80;;;10.68;;
59054;SDS011;44845;51.444;7.460;2023-05-23T05:52:13;17.15;;;10.25;;
59054;SDS011;44845;51.444;7.460;2023-05-23T05:54:38;13.98;;;10.07;;
59054;SDS011;44845;51.444;7.460;2023-05-23T05:57:03;17.40;;;9.55;;
59054;SDS011;44845;51.444;7.460;2023-05-23T05:59:29;14.80;;;8.73;;
59054;SDS011;44845;51.444;7.460;2023-05-23T06:01:54;14.32;;;9.60;;
59054;SDS011;44845;51.444;7.460;2023-05-23T06:04:20;17.48;;;9.07;;
59054;SDS011;44845;51.444;7.460;2023-05-23T06:06:45;17.08;;;9.80;;
59054;SDS011;44845;51.444;7.460;2023-05-23T06:09:11;19.70;;;12.13;;
59054;SDS011;44845;51.444;7.460;2023-05-23T06:11:36;19.13;;;11.38;;
59054;SDS011;44845;51.444;7.460;2023-05-23T06:14:05;19.80;;;11.95;;
59054;SDS011;44845;51.444;7.460;2023-05-23T06:16:31;21.45;;;12.43;;
59054;SDS011;44845;51.444;7.460;2023-05-23T06:18:56;21.20;;;12.75;;
59054;SDS011;44845;51.444;7.460;2023-05-23T06:21:22;18.10;;;12.43;;
59054;SDS011;44845;51.444;7.460;2023-05-23T06:23:47;19.83;;;12.57;;
59054;SDS011;44845;51.444;7.460;2023-05-23T06:26:12;24.77;;;14.02;;
59054;SDS011;44845;51.444;7.460;2023-05-23T06:28:38;20.05;;;13.13;;
59054;SDS011;44845;51.444;7.460;2023-05-23T06:31:03;25.15;;;14.15;;
59054;SDS011;44845;51.444;7.460;2023-05-23T06:33:29;20.92;;;12.98;;
59054;SDS011;44845;51.444;7.460;2023-05-23T06:35:55;18.25;;;13.23;;
59054;SDS011;44845;51.444;7.460;2023-05-23T06:38:20;17.00;;;12.02;;
59054;SDS011;44845;51.444;7.460;2023-05-23T06:40:46;18.38;;;12.48;;
59054;SDS011;44845;51.444;7.460;2023-05-23T06:43:11;21.55;;;12.50;;
59054;SDS011;44845;51.444;7.460;2023-05-23T06:45:36;21.05;;;12.57;;
59054;SDS011;44845;51.444;7.460;2023-05-23T06:48:02;15.73;;;12.60;;
59054;SDS011;44845;51.444;7.460;2023-05-23T06:50:28;19.58;;;13.10;;
59054;SDS011;44845;51.444;7.460;2023-05-23T06:52:53;22.30;;;14.02;;
59054;SDS011;44845;51.444;7.460;2023-05-23T06:55:20;18.33;;;12.57;;
59054;SDS011;44845;51.444;7.460;2023-05-23T06:57:45;17.58;;;12.23;;
59054;SDS011;44845;51.444;7.460;2023-05-23T07:00:11;16.30;;;11.43;;
59054;SDS011;44845;51.444;7.460;2023-05-23T07:02:37;15.10;;;11.50;;
59054;SDS011;44845;51.444;7.460;2023-05-23T07:05:03;16.05;;;9.75;;
59054;SDS011;44845;51.444;7.460;2023-05-23T07:07:29;12.27;;;9.45;;
59054;SDS011;44845;51.444;7.460;2023-05-23T07:09:54;13.90;;;9.05;;
59054;SDS011;44845;51.444;7.460;2023-05-23T07:12:19;11.80;;;7.53;;
59054;SDS011;44845;51.444;7.460;2023-05-23T07:14:45;12.45;;;8.23;;
59054;SDS011;44845;51.444;7.460;2023-05-23T07:17:10;12.45;;;6.88;;
59054;SDS011;44845;51.444;7.460;2023-05-23T07:19:36;11.98;;;6.50;;
59054;SDS011;44845;51.444;7.460;2023-05-23T07:22:01;11.48;;;6.32;;
59054;SDS011;44845;51.444;7.460;2023-05-23T07:24:27;13.73;;;6.68;;
59054;SDS011;44845;51.444;7.460;2023-05-23T07:26:52;15.48;;;5.38;;
59054;SDS011;44845;51.444;7.460;2023-05-23T07:29:17;13.95;;;6.18;;
59054;SDS011;44845;51.444;7.460;2023-05-23T07:31:43;12.20;;;5.68;;
59054;SDS011;44845;51.444;7.460;2023-05-23T07:34:08;13.25;;;5.70;;
59054;SDS011;44845;51.444;7.460;2023-05-23T07:36:33;11.90;;;5.68;;
59054;SDS011;44845;51.444;7.460;2023-05-23T07:39:01;8.68;;;5.72;;
59054;SDS011;44845;51.444;7.460;2023-05-23T07:41:27;10.98;;;5.95;;
59054;SDS011;44845;51.444;7.460;2023-05-23T07:43:53;11.68;;;6.10;;
59054;SDS011;44845;51.444;7.460;2023-05-23T07:46:18;7.95;;;5.45;;
59054;SDS011;44845;51.444;7.460;2023-05-23T07:48:44;12.48;;;5.72;;
59054;SDS011;44845;51.444;7.460;2023-05-23T07:51:09;7.80;;;5.60;;
59054;SDS011;44845;51.444;7.460;2023-05-23T07:53:37;9.93;;;5.70;;
59054;SDS011;44845;51.444;7.460;2023-05-23T07:56:04;12.55;;;5.60;;
59054;SDS011;44845;51.444;7.460;2023-05-23T07:58:30;11.18;;;5.65;;
59054;SDS011;44845;51.444;7.460;2023-05-23T08:00:55;10.98;;;5.68;;
59054;SDS011;44845;51.444;7.460;2023-05-23T08:03:21;11.20;;;5.18;;
59054;SDS011;44845;51.444;7.460;2023-05-23T08:05:47;9.88;;;5.18;;
59054;SDS011;44845;51.444;7.460;2023-05-23T08:08:12;12.50;;;5.35;;
59054;SDS011;44845;51.444;7.460;2023-05-23T08:10:38;9.48;;;4.80;;
59054;SDS011;44845;51.444;7.460;2023-05-23T08:13:04;10.10;;;4.95;;
59054;SDS011;44845;51.444;7.460;2023-05-23T08:15:30;9.55;;;5.57;;
59054;SDS011;44845;51.444;7.460;2023-05-23T08:17:57;11.95;;;5.68;;
59054;SDS011;44845;51.444;7.460;2023-05-23T08:20:23;13.60;;;6.15;;
59054;SDS011;44845;51.444;7.460;2023-05-23T08:22:56;13.85;;;5.65;;
59054;SDS011;44845;51.444;7.460;2023-05-23T08:25:22;12.30;;;5.90;;
59054;SDS011;44845;51.444;7.460;2023-05-23T08:27:49;11.63;;;6.28;;
59054;SDS011;44845;51.444;7.460;2023-05-23T08:30:15;11.10;;;5.22;;
59054;SDS011;44845;51.444;7.460;2023-05-23T08:32:40;9.07;;;5.25;;
59054;SDS011;44845;51.444;7.460;2023-05-23T08:35:06;9.77;;;5.25;;
59054;SDS011;44845;51.444;7.460;2023-05-23T08:37:32;13.25;;;5.57;;
59054;SDS011;44845;51.444;7.460;2023-05-23T08:39:57;11.82;;;5.63;;
59054;SDS011;44845;51.444;7.460;2023-05-23T08:42:22;9.45;;;5.63;;
59054;SDS011;44845;51.444;7.460;2023-05-23T08:44:48;10.98;;;6.05;;
59054;SDS011;44845;51.444;7.460;2023-05-23T08:47:13;11.65;;;5.50;;
59054;SDS011;44845;51.444;7.460;2023-05-23T08:49:41;12.73;;;5.70;;
59054;SDS011;44845;51.444;7.460;2023-05-23T08:52:08;11.18;;;5.53;;
59054;SDS011;44845;51.444;7.460;2023-05-23T08:54:37;11.07;;;4.55;;
59054;SDS011;44845;51.444;7.460;2023-05-23T08:57:04;7.78;;;4.55;;
59054;SDS011;44845;51.444;7.460;2023-05-23T08:59:30;12.70;;;5.55;;
59054;SDS011;44845;51.444;7.460;2023-05-23T09:01:57;8.98;;;4.30;;
59054;SDS011;44845;51.444;7.460;2023-05-23T09:04:24;8.30;;;4.65;;
59054;SDS011;44845;51.444;7.460;2023-05-23T09:06:49;6.82;;;3.67;;
59054;SDS011;44845;51.444;7.460;2023-05-23T09:09:15;6.03;;;3.45;;
59054;SDS011;44845;51.444;7.460;2023-05-23T09:11:41;5.55;;;3.47;;
59054;SDS011;44845;51.444;7.460;2023-05-23T09:14:09;7.43;;;3.30;;
59054;SDS011;44845;51.444;7.460;2023-05-23T09:16:35;5.78;;;3.55;;
59054;SDS011;44845;51.444;7.460;2023-05-23T09:19:08;10.95;;;5.53;;
59054;SDS011;44845;51.444;7.460;2023-05-23T09:21:36;8.68;;;4.97;;
59054;SDS011;44845;51.444;7.460;2023-05-23T09:24:05;10.02;;;5.82;;
59054;SDS011;44845;51.444;7.460;2023-05-23T09:26:31;7.68;;;5.00;;
59054;SDS011;44845;51.444;7.460;2023-05-23T09:28:56;8.27;;;4.93;;
59054;SDS011;44845;51.444;7.460;2023-05-23T09:31:25;12.95;;;5.13;;
59054;SDS011;44845;51.444;7.460;2023-05-23T09:33:52;9.93;;;4.95;;
59054;SDS011;44845;51.444;7.460;2023-05-23T09:36:17;9.00;;;5.07;;
59054;SDS011;44845;51.444;7.460;2023-05-23T09:38:44;8.15;;;5.07;;
59054;SDS011;44845;51.444;7.460;2023-05-23T09:41:10;16.35;;;6.55;;
59054;SDS011;44845;51.444;7.460;2023-05-23T09:43:37;16.10;;;6.47;;
59054;SDS011;44845;51.444;7.460;2023-05-23T09:46:08;13.52;;;5.90;;
59054;SDS011;44845;51.444;7.460;2023-05-23T09:48:34;10.23;;;5.57;;
59054;SDS011;44845;51.444;7.460;2023-05-23T09:51:03;13.15;;;6.07;;
59054;SDS011;44845;51.444;7.460;2023-05-23T09:53:30;9.70;;;5.38;;
59054;SDS011;44845;51.444;7.460;2023-05-23T09:55:55;15.38;;;6.40;;
59054;SDS011;44845;51.444;7.460;2023-05-23T09:58:26;13.63;;;6.30;;
59054;SDS011;44845;51.444;7.460;2023-05-23T10:00:54;12.50;;;5.55;;
59054;SDS011;44845;51.444;7.460;2023-05-23T10:03:54;16.80;;;5.28;;
59054;SDS011;44845;51.444;7.460;2023-05-23T10:08:54;10.45;;;4.65;;
59054;SDS011;44845;51.444;7.460;2023-05-23T10:14:08;9.48;;;4.55;;
59054;SDS011;44845;51.444;7.460;2023-05-23T10:19:26;6.57;;;3.25;;
59054;SDS011;44845;51.444;7.460;2023-05-23T10:21:57;10.27;;;4.10;;
59054;SDS011;44845;51.444;7.460;2023-05-23T10:24:24;8.63;;;4.07;;
59054;SDS011;44845;51.444;7.460;2023-05-23T10:26:53;10.77;;;5.47;;
59054;SDS011;44845;51.444;7.460;2023-05-23T10:29:22;13.48;;;5.22;;
59054;SDS011;44845;51.444;7.460;2023-05-23T10:31:49;10.93;;;5.45;;
59054;SDS011;44845;51.444;7.460;2023-05-23T10:34:23;11.20;;;5.28;;
59054;SDS011;44845;51.444;7.460;2023-05-23T10:36:59;12.48;;;4.93;;
59054;SDS011;44845;51.444;7.460;2023-05-23T10:42:06;13.80;;;5.55;;
59054;SDS011;44845;51.444;7.460;2023-05-23T10:44:39;11.73;;;5.00;;
59054;SDS011;44845;51.444;7.460;2023-05-23T10:47:04;19.35;;;5.95;;
59054;SDS011;44845;51.444;7.460;2023-05-23T10:49:43;7.72;;;4.50;;
59054;SDS011;44845;51.444;7.460;2023-05-23T10:52:10;10.23;;;5.07;;
59054;SDS011;44845;51.444;7.460;2023-05-23T10:54:47;8.85;;;4.22;;
59054;SDS011;44845;51.444;7.460;2023-05-23T10:57:16;8.48;;;5.22;;
59054;SDS011;44845;51.444;7.460;2023-05-23T10:59:46;9.43;;;4.45;;
59054;SDS011;44845;51.444;7.460;2023-05-23T11:02:15;10.55;;;5.07;;
59054;SDS011;44845;51.444;7.460;2023-05-23T11:04:43;10.23;;;4.57;;
59054;SDS011;44845;51.444;7.460;2023-05-23T11:07:27;11.85;;;4.53;;
59054;SDS011;44845;51.444;7.460;2023-05-23T11:10:29;9.50;;;4.57;;
59054;SDS011;44845;51.444;7.460;2023-05-23T11:12:48;9.18;;;4.95;;
59054;SDS011;44845;51.444;7.460;2023-05-23T11:17:51;11.93;;;5.07;;
59054;SDS011;44845;51.444;7.460;2023-05-23T11:20:19;13.20;;;4.85;;
59054;SDS011;44845;51.444;7.460;2023-05-23T11:23:00;12.73;;;4.70;;
59054;SDS011;44845;51.444;7.460;2023-05-23T11:25:40;11.55;;;5.13;;
59054;SDS011;44845;51.444;7.460;2023-05-23T11:28:07;10.98;;;5.40;;
59054;SDS011;44845;51.444;7.460;2023-05-23T11:30:34;12.15;;;4.63;;
59054;SDS011;44845;51.444;7.460;2023-05-23T11:33:06;9.23;;;4.70;;
59054;SDS011;44845;51.444;7.460;2023-05-23T11:35:37;14.90;;;5.30;;
59054;SDS011;44845;51.444;7.460;2023-05-23T11:38:03;11.73;;;4.97;;
59054;SDS011;44845;51.444;7.460;2023-05-23T11:43:03;10.90;;;4.53;;
59054;SDS011;44845;51.444;7.460;2023-05-23T11:45:30;9.52;;;4.65;;
59054;SDS011;44845;51.444;7.460;2023-05-23T11:47:56;10.60;;;4.53;;
59054;SDS011;44845;51.444;7.460;2023-05-23T11:50:21;9.02;;;4.72;;
59054;SDS011;44845;51.444;7.460;2023-05-23T11:52:48;12.65;;;4.93;;
59054;SDS011;44845;51.444;7.460;2023-05-23T11:55:20;10.02;;;4.13;;
59054;SDS011;44845;51.444;7.460;2023-05-23T11:57:46;12.15;;;4.88;;
59054;SDS011;44845;51.444;7.460;2023-05-23T12:00:13;11.55;;;4.10;;
59054;SDS011;44845;51.444;7.460;2023-05-23T12:02:39;11.70;;;3.90;;
59054;SDS011;44845;51.444;7.460;2023-05-23T12:05:06;7.32;;;3.63;;
59054;SDS011;44845;51.444;7.460;2023-05-23T12:07:43;11.32;;;3.83;;
59054;SDS011;44845;51.444;7.460;2023-05-23T12:10:11;15.57;;;4.07;;
59054;SDS011;44845;51.444;7.460;2023-05-23T12:12:36;8.68;;;3.38;;
59054;SDS011;44845;51.444;7.460;2023-05-23T12:15:02;10.43;;;3.58;;
59054;SDS011;44845;51.444;7.460;2023-05-23T12:17:28;8.23;;;3.35;;
59054;SDS011;44845;51.444;7.460;2023-05-23T12:19:54;12.45;;;4.07;;
59054;SDS011;44845;51.444;7.460;2023-05-23T12:22:23;11.02;;;3.50;;
59054;SDS011;44845;51.444;7.460;2023-05-23T12:24:51;11.48;;;3.45;;
59054;SDS011;44845;51.444;7.460;2023-05-23T12:27:18;6.85;;;3.03;;
59054;SDS011;44845;51.444;7.460;2023-05-23T12:29:48;9.88;;;3.33;;
59054;SDS011;44845;51.444;7.460;2023-05-23T12:32:17;18.90;;;4.53;;
59054;SDS011;44845;51.444;7.460;2023-05-23T12:34:43;14.07;;;3.47;;
59054;SDS011;44845;51.444;7.460;2023-05-23T12:37:08;11.70;;;2.90;;
59054;SDS011;44845;51.444;7.460;2023-05-23T12:39:37;15.23;;;3.38;;
59054;SDS011;44845;51.444;7.460;2023-05-23T12:42:08;8.05;;;2.63;;
59054;SDS011;44845;51.444;7.460;2023-05-23T12:44:34;13.32;;;3.20;;
59054;SDS011;44845;51.444;7.460;2023-05-23T12:47:00;8.95;;;3.03;;
59054;SDS011;44845;51.444;7.460;2023-05-23T12:49:26;10.50;;;2.83;;
59054;SDS011;44845;51.444;7.460;2023-05-23T12:51:52;8.63;;;2.60;;
59054;SDS011;44845;51.444;7.460;2023-05-23T12:54:17;10.07;;;3.00;;
59054;SDS011;44845;51.444;7.460;2023-05-23T12:56:43;9.45;;;2.60;;
59054;SDS011;44845;51.444;7.460;2023-05-23T12:59:08;10.57;;;2.60;;
59054;SDS011;44845;51.444;7.460;2023-05-23T13:01:33;10.88;;;2.65;;
59054;SDS011;44845;51.444;7.460;2023-05-23T13:03:59;8.35;;;2.85;;
59054;SDS011;44845;51.444;7.460;2023-05-23T13:06:25;14.18;;;3.00;;
59054;SDS011;44845;51.444;7.460;2023-05-23T13:08:51;15.77;;;3.17;;
59054;SDS011;44845;51.444;7.460;2023-05-23T13:11:18;12.20;;;3.22;;
59054;SDS011;44845;51.444;7.460;2023-05-23T13:13:45;10.38;;;3.15;;
59054;SDS011;44845;51.444;7.460;2023-05-23T13:16:10;14.35;;;3.38;;
59054;SDS011;44845;51.444;7.460;2023-05-23T13:18:36;10.88;;;3.15;;
59054;SDS011;44845;51.444;7.460;2023-05-23T13:21:01;9.25;;;2.75;;
59054;SDS011;44845;51.444;7.460;2023-05-23T13:23:27;10.73;;;2.83;;
59054;SDS011;44845;51.444;7.460;2023-05-23T13:25:53;16.23;;;3.38;;
59054;SDS011;44845;51.444;7.460;2023-05-23T13:28:21;13.80;;;3.42;;
59054;SDS011;44845;51.444;7.460;2023-05-23T13:30:47;9.43;;;2.72;;
59054;SDS011;44845;51.444;7.460;2023-05-23T13:33:12;12.77;;;2.95;;
59054;SDS011;44845;51.444;7.460;2023-05-23T13:35:38;11.07;;;2.67;;
59054;SDS011;44845;51.444;7.460;2023-05-23T13:38:03;10.90;;;3.13;;
59054;SDS011;44845;51.444;7.460;2023-05-23T13:40:28;10.07;;;2.95;;
59054;SDS011;44845;51.444;7.460;2023-05-23T13:42:54;13.70;;;3.28;;
59054;SDS011;44845;51.444;7.460;2023-05-23T13:45:19;8.50;;;2.88;;
59054;SDS011;44845;51.444;7.460;2023-05-23T13:47:46;9.00;;;2.83;;
59054;SDS011;44845;51.444;7.460;2023-05-23T13:50:12;12.70;;;2.80;;
59054;SDS011;44845;51.444;7.460;2023-05-23T13:52:37;10.60;;;3.22;;
59054;SDS011;44845;51.444;7.460;2023-05-23T13:55:03;11.65;;;3.20;;
59054;SDS011;44845;51.444;7.460;2023-05-23T13:57:29;8.63;;;3.47;;
59054;SDS011;44845;51.444;7.460;2023-05-23T13:59:55;15.35;;;2.83;;
59054;SDS011;44845;51.444;7.460;2023-05-23T14:02:21;10.80;;;2.63;;
59054;SDS011;44845;51.444;7.460;2023-05-23T14:04:49;10.82;;;3.05;;
59054;SDS011;44845;51.444;7.460;2023-05-23T14:07:16;8.55;;;2.85;;
59054;SDS011;44845;51.444;7.460;2023-05-23T14:09:42;8.55;;;2.78;;
59054;SDS011;44845;51.444;7.460;2023-05-23T14:12:07;11.95;;;2.90;;
59054;SDS011;44845;51.444;7.460;2023-05-23T14:14:33;11.73;;;3.42;;
59054;SDS011;44845;51.444;7.460;2023-05-23T14:16:58;8.63;;;2.92;;
59054;SDS011;44845;51.444;7.460;2023-05-23T14:19:23;11.07;;;3.10;;
59054;SDS011;44845;51.444;7.460;2023-05-23T14:21:49;15.30;;;3.28;;
59054;SDS011;44845;51.444;7.460;2023-05-23T14:24:14;12.18;;;3.38;;
59054;SDS011;44845;51.444;7.460;2023-05-23T14:26:40;10.23;;;3.00;;
59054;SDS011;44845;51.444;7.460;2023-05-23T14:29:05;11.00;;;2.78;;
59054;SDS011;44845;51.444;7.460;2023-05-23T14:31:31;8.15;;;2.35;;
59054;SDS011;44845;51.444;7.460;2023-05-23T14:33:56;10.50;;;2.90;;
59054;SDS011;44845;51.444;7.460;2023-05-23T14:36:23;8.77;;;2.50;;
59054;SDS011;44845;51.444;7.460;2023-05-23T14:38:49;12.27;;;3.00;;
59054;SDS011;44845;51.444;7.460;2023-05-23T14:41:15;12.75;;;3.10;;
59054;SDS011;44845;51.444;7.460;2023-05-23T14:43:40;15.52;;;3.35;;
59054;SDS011;44845;51.444;7.460;2023-05-23T14:46:06;12.90;;;2.75;;
59054;SDS011;44845;51.444;7.460;2023-05-23T14:48:32;11.57;;;2.83;;
59054;SDS011;44845;51.444;7.460;2023-05-23T14:50:58;11.95;;;3.20;;
59054;SDS011;44845;51.444;7.460;2023-05-23T14:53:26;6.70;;;2.45;;
59054;SDS011;44845;51.444;7.460;2023-05-23T14:55:52;11.88;;;3.03;;